Nearby METAR Reports

 

KPRB - Paso Robles, California, USA
Distance from station: SW 1mi, 1km
Updated: 11/27/2014 3:53am
Clear
Clear
 Wind from calm
Wind: Calm
Temperature: 39°F , 4°C
Dew Point: 34°F , 1°C
Humidity: 81%
Barometer: 30.18 inHg , 1022 hPa
Clouds: Clear
Visibility: 7 miles , 11 km
2014/11/27 11:53 KPRB 271153Z AUTO 00000KT 7SM CLR 04/01 A3018 RMK AO2 SLP219 T00440011 10106 20044 56012 TSNO
KSBP - San Luis Obispo, California, USA
Distance from station: S 30mi, 49km
Updated: 11/27/2014 3:56am
Clear
Clear
 Wind from calm
Wind: Calm
Temperature: 45°F , 7°C
Dew Point: 37°F , 3°C
Humidity: 76%
Barometer: 30.12 inHg , 1020 hPa
Clouds: Clear
Visibility: 10 miles , 16 km
2014/11/27 11:56 KSBP 271156Z AUTO 00000KT 10SM CLR 07/03 A3012 RMK AO2 SLP197 T00720028 10106 20067 56015
 
KSMX - Santa Maria, California, USA
Distance from station: S 54mi, 87km
Updated: 11/27/2014 3:51am
Clear
Clear
 Wind from NE
Wind: NE 3 mph , 6 km/h
Temperature: 50°F , 10°C
Dew Point: 34°F , 1°C
Humidity: 54%
Barometer: 30.12 inHg , 1020 hPa
Clouds: Clear
Visibility: 10 miles , 16 km
2014/11/27 11:51 KSMX 271151Z 05003KT 10SM CLR 10/01 A3012 RMK AO2 SLP202 T01000011 10122 20083 58014 $
KNLC - Lemoore Nas/Reev, California, USA
Distance from station: NE 58mi, 94km
Updated: 11/27/2014 3:56am
Haze, Clear
Haze, Clear
 Wind from S
Wind: S 5 mph , 7 km/h
Temperature: 39°F , 4°C
Wind Chill: 35°F , 2°C
Barometer: 30.19 inHg , 1022.4 hPa
Summary: Haze
Clouds: Clear
Visibility: 4 miles , 6 km
2014/11/27 11:56 KNLC 271156Z AUTO 17004KT 4SM HZ CLR 04/ A3019 RMK AO2 SLP224 T0044 10089 20033 56015 $
 
KVBG - Vandenberg Afb, California, USA
Distance from station: S 65mi, 105km
Updated: 11/27/2014 3:55am
Clear
Clear
 Wind from ESE
Wind: ESE 10 mph , 17 km/h
Temperature: 52°F , 11°C
Dew Point: 32°F , 0°C
Humidity: 47%
Barometer: 30.12 inHg , 1020 hPa
Clouds: Clear
Visibility: 10 miles , 16 km
2014/11/27 11:55 KVBG 271155Z AUTO 11009KT 10SM CLR 11/00 A3012 RMK AO2 SLP190 T01060000 10122 20089 58014 TSNO $
KLPC - Lompoc, California, USA
Distance from station: S 70mi, 113km
Updated: 11/27/2014 4:35am
Clear
Clear
 Wind from E
Wind: E 9 mph , 15 km/h
Temperature: 43°F , 6°C
Wind Chill: 38°F , 3°C
Dew Point: 30°F , -1°C
Humidity: 61%
Barometer: 30.11 inHg , 1019.6 hPa
Clouds: Clear
Visibility: 10 miles , 16 km
2014/11/27 12:35 KLPC 271235Z AUTO 09008KT 10SM CLR 06/M01 A3011 RMK AO1
 
KHJO - Hanford, California, USA
Distance from station: NE 72mi, 116km
Updated: 11/27/2014 4:42am
Fog, Overcast
Fog, Overcast
 Wind from calm
Wind: Calm
Temperature: 39°F , 4°C
Dew Point: 37°F , 3°C
Humidity: 93%
Barometer: 30.19 inHg , 1022.4 hPa
Summary: Fog
Clouds: Overcast
Visibility: less than 1/4 mile , 2 km
Cloud details: Overcast 900 ft
2014/11/27 12:42 KHJO 271242Z AUTO 00000KT M1/4SM FG VV009 04/03 A3019 RMK AO2 T00390033